createdAt,value
2022-10-13T00:00:27.589Z,101818.29
2022-10-13T00:01:29.478Z,101814.78
2022-10-13T00:02:31.274Z,101815.64
2022-10-13T00:03:33.098Z,101823.37
2022-10-13T00:04:34.905Z,101824.28
2022-10-13T00:05:36.719Z,101818.12
2022-10-13T00:06:38.581Z,101826.84
2022-10-13T00:07:40.512Z,101821.59
2022-10-13T00:08:42.320Z,101820.69
2022-10-13T00:09:44.139Z,101820.64
2022-10-13T00:10:45.962Z,101821.55
2022-10-13T00:11:47.865Z,101812.80
2022-10-13T00:12:49.693Z,101817.95
2022-10-13T00:13:51.518Z,101813.61
2022-10-13T00:14:53.331Z,101818.81
2022-10-13T00:15:55.154Z,101813.56
2022-10-13T00:16:57.034Z,101823.97
2022-10-13T00:17:58.869Z,101819.64
2022-10-13T00:19:00.680Z,101816.13
2022-10-13T00:20:02.502Z,101818.72
2022-10-13T00:21:04.331Z,101824.75
2022-10-13T00:22:06.207Z,101824.75
2022-10-13T00:23:08.018Z,101816.91
2022-10-13T00:24:09.830Z,101821.23
2022-10-13T00:25:11.651Z,101820.34
2022-10-13T00:26:13.581Z,101819.47
2022-10-13T00:27:15.421Z,101824.62
2022-10-13T00:28:17.318Z,101818.52
2022-10-13T00:29:19.104Z,101822.81
2022-10-13T00:30:20.931Z,101821.95
2022-10-13T00:31:22.756Z,101825.38
2022-10-13T00:32:24.735Z,101822.77
2022-10-13T00:33:26.543Z,101822.77
2022-10-13T00:34:28.374Z,101822.73
2022-10-13T00:35:30.186Z,101820.95
2022-10-13T00:36:32.013Z,101822.68
2022-10-13T00:37:33.867Z,101820.08
2022-10-13T00:38:35.690Z,101824.37
2022-10-13T00:39:37.516Z,101819.16
2022-10-13T00:40:39.324Z,101818.22
2022-10-13T00:41:41.143Z,101821.72
2022-10-13T00:42:42.998Z,101823.42
2022-10-13T00:43:44.907Z,101824.28
2022-10-13T00:44:46.716Z,101820.77
2022-10-13T00:45:48.536Z,101825.97
2022-10-13T00:46:50.347Z,101825.93
2022-10-13T00:47:52.216Z,101824.19
2022-10-13T00:48:54.044Z,101820.68
2022-10-13T00:49:55.863Z,101827.61
2022-10-13T00:50:57.686Z,101819.81
2022-10-13T00:51:59.499Z,101825.84
2022-10-13T00:53:01.362Z,101818.89
2022-10-13T00:54:03.191Z,101821.49
2022-10-13T00:55:05.014Z,101821.45
2022-10-13T00:56:07.434Z,101821.45
2022-10-13T00:57:09.257Z,101819.63
2022-10-13T00:58:11.117Z,101816.16
2022-10-13T00:59:12.973Z,101812.66
2022-10-13T01:00:14.963Z,101823.02
2022-10-13T01:01:16.811Z,101822.19
2022-10-13T01:02:18.731Z,101819.54
2022-10-13T01:03:20.732Z,101821.27
2022-10-13T01:04:22.539Z,101822.09
2022-10-13T01:05:24.376Z,101821.22
2022-10-13T01:06:26.201Z,101819.45
2022-10-13T01:07:28.037Z,101824.60
2022-10-13T01:08:29.884Z,101821.09
2022-10-13T01:09:31.709Z,101817.63
2022-10-13T01:10:33.646Z,101819.35
2022-10-13T01:11:35.478Z,101814.98
2022-10-13T01:12:37.280Z,101813.20
2022-10-13T01:13:39.128Z,101821.00
2022-10-13T01:14:40.989Z,101817.53
2022-10-13T01:15:42.819Z,101818.36
2022-10-13T01:16:44.660Z,101815.76
2022-10-13T01:17:46.477Z,101816.62
2022-10-13T01:18:48.329Z,101813.11
2022-10-13T01:19:50.163Z,101817.44
2022-10-13T01:20:51.976Z,101817.44
2022-10-13T01:21:53.807Z,101824.37
2022-10-13T01:22:55.623Z,101812.20
2022-10-13T01:23:57.468Z,101814.80
2022-10-13T01:24:59.289Z,101816.52
2022-10-13T01:26:01.216Z,101814.80
2022-10-13T01:27:03.054Z,101824.33
2022-10-13T01:28:04.934Z,101816.52
2022-10-13T01:29:06.798Z,101818.22
2022-10-13T01:30:08.755Z,101814.75
2022-10-13T01:31:10.585Z,101815.57
2022-10-13T01:32:12.412Z,101818.12
2022-10-13T01:33:14.252Z,101808.62
2022-10-13T01:34:16.154Z,101820.72
2022-10-13T01:35:17.976Z,101816.38
2022-10-13T01:36:19.791Z,101811.14
2022-10-13T01:37:21.614Z,101816.34
2022-10-13T01:38:23.456Z,101818.03
2022-10-13T01:39:25.385Z,101814.56
2022-10-13T01:40:27.201Z,101814.52
2022-10-13T01:41:29.025Z,101814.52
2022-10-13T01:42:30.840Z,101817.94
2022-10-13T01:43:32.664Z,101811.82
2022-10-13T01:44:34.516Z,101816.20
2022-10-13T01:45:36.398Z,101819.66
2022-10-13T01:46:38.230Z,101807.49
2022-10-13T01:47:40.069Z,101816.15
2022-10-13T01:48:41.893Z,101819.63
2022-10-13T01:49:43.745Z,101815.24
2022-10-13T01:50:45.658Z,101817.84
2022-10-13T01:51:47.481Z,101813.47
2022-10-13T01:52:49.305Z,101814.33
2022-10-13T01:53:51.124Z,101818.57
2022-10-13T01:54:52.969Z,101819.52
2022-10-13T01:55:54.781Z,101820.34
2022-10-13T01:56:56.608Z,101824.62
2022-10-13T01:57:58.431Z,101826.37
2022-10-13T01:59:00.261Z,101822.84
2022-10-13T02:00:02.145Z,101824.58
2022-10-13T02:01:04.029Z,101824.62
2022-10-13T02:02:05.797Z,101821.98
2022-10-13T02:03:07.597Z,101821.98
2022-10-13T02:04:09.395Z,101821.08
2022-10-13T02:05:11.212Z,101824.58
2022-10-13T02:06:13.308Z,101821.93
2022-10-13T02:07:15.105Z,101821.03
2022-10-13T02:08:16.902Z,101814.13
2022-10-13T02:09:18.701Z,101816.73
2022-10-13T02:10:20.546Z,101818.42
2022-10-13T02:11:22.343Z,101822.75
2022-10-13T02:12:24.061Z,101825.35
2022-10-13T02:13:25.846Z,101819.28
2022-10-13T02:14:27.649Z,101818.38
2022-10-13T02:15:29.487Z,101821.84
2022-10-13T02:16:31.407Z,101820.93
2022-10-13T02:17:33.175Z,101819.23
2022-10-13T02:18:34.976Z,101828.73
2022-10-13T02:19:36.672Z,101826.98
2022-10-13T02:20:38.503Z,101820.06
2022-10-13T02:21:40.318Z,101815.69
2022-10-13T02:22:42.013Z,101826.98
2022-10-13T02:23:43.810Z,101824.34
2022-10-13T02:24:45.600Z,101831.28
2022-10-13T02:25:47.419Z,101830.36
2022-10-13T02:26:49.225Z,101829.48
2022-10-13T02:27:51.038Z,101832.09
2022-10-13T02:28:52.860Z,101831.18
2022-10-13T02:29:54.620Z,101830.31
2022-10-13T02:30:56.457Z,101832.03
2022-10-13T02:31:58.302Z,101829.44
2022-10-13T02:33:00.088Z,101834.59
2022-10-13T02:34:01.878Z,101828.48
2022-10-13T02:35:03.671Z,101826.73
2022-10-13T02:36:05.559Z,101832.81
2022-10-13T02:37:07.327Z,101831.03
2022-10-13T02:38:09.118Z,101831.89
2022-10-13T02:39:10.933Z,101835.31
2022-10-13T02:40:12.746Z,101836.18
2022-10-13T02:41:14.567Z,101838.73
2022-10-13T02:42:16.386Z,101836.13
2022-10-13T02:43:18.184Z,101832.66
2022-10-13T02:44:19.974Z,101837.86
2022-10-13T02:45:21.778Z,101834.36
2022-10-13T02:46:23.613Z,101830.88
2022-10-13T02:47:25.509Z,101826.51
2022-10-13T02:48:27.301Z,101830.84
2022-10-13T02:49:28.999Z,101830.84
2022-10-13T02:50:30.802Z,101833.38
2022-10-13T02:51:37.540Z,101831.66
2022-10-13T02:52:36.262Z,101825.59
2022-10-13T02:53:38.048Z,101819.38
2022-10-13T02:54:39.848Z,101824.67
2022-10-13T02:55:41.643Z,101828.91
2022-10-13T02:56:43.478Z,101824.57
2022-10-13T02:57:45.279Z,101828.86
2022-10-13T02:58:47.076Z,101833.19
2022-10-13T02:59:48.874Z,101831.41
2022-10-13T03:00:50.727Z,101830.48
2022-10-13T03:01:52.611Z,101830.48
2022-10-13T03:02:54.499Z,101833.09
2022-10-13T03:03:56.600Z,101831.31
2022-10-13T03:04:58.402Z,101836.50
2022-10-13T03:06:00.289Z,101828.66
2022-10-13T03:07:02.033Z,101839.10
2022-10-13T03:08:03.829Z,101833.86
2022-10-13T03:09:05.634Z,101832.98
2022-10-13T03:10:07.737Z,101832.98
2022-10-13T03:11:09.527Z,101839.95
2022-10-13T03:12:11.360Z,101835.58
2022-10-13T03:13:13.173Z,101831.21
2022-10-13T03:14:14.971Z,101835.58
2022-10-13T03:15:16.785Z,101830.34
2022-10-13T03:16:18.573Z,101831.21
2022-10-13T03:17:20.401Z,101838.13
2022-10-13T03:18:22.261Z,101834.66
2022-10-13T03:19:24.042Z,101826.87
2022-10-13T03:20:25.847Z,101831.16
2022-10-13T03:21:27.638Z,101833.75
2022-10-13T03:22:29.488Z,101826.87
2022-10-13T03:23:31.297Z,101830.28
2022-10-13T03:24:33.088Z,101836.30
2022-10-13T03:25:34.882Z,101836.30
2022-10-13T03:26:36.687Z,101835.43
2022-10-13T03:27:38.533Z,101839.72
2022-10-13T03:28:40.407Z,101835.38
2022-10-13T03:29:42.138Z,101836.25
2022-10-13T03:30:43.930Z,101836.25
2022-10-13T03:31:45.737Z,101833.61
2022-10-13T03:32:47.574Z,101837.92
2022-10-13T03:33:49.436Z,101839.63
2022-10-13T03:34:51.241Z,101837.02
2022-10-13T03:35:53.041Z,101841.34
2022-10-13T03:36:54.936Z,101841.34
2022-10-13T03:37:56.767Z,101849.14
2022-10-13T03:38:58.454Z,101844.77
2022-10-13T03:40:00.258Z,101839.52
2022-10-13T03:41:02.048Z,101835.17
2022-10-13T03:42:03.854Z,101838.64
2022-10-13T03:43:05.741Z,101842.97
2022-10-13T03:44:07.530Z,101846.38
2022-10-13T03:45:09.308Z,101845.46
2022-10-13T03:46:11.206Z,101848.11
2022-10-13T03:47:13.018Z,101848.93
2022-10-13T03:48:14.844Z,101853.25
2022-10-13T03:49:16.676Z,101849.75
2022-10-13T03:50:18.471Z,101849.70
2022-10-13T03:51:20.277Z,101847.10
2022-10-13T03:52:22.409Z,101854.02
2022-10-13T03:53:24.426Z,101850.55
2022-10-13T03:54:26.246Z,101847.05
2022-10-13T03:55:28.024Z,101851.38
2022-10-13T03:56:29.736Z,101854.78
2022-10-13T03:57:31.518Z,101860.89
2022-10-13T03:58:33.363Z,101859.11
2022-10-13T03:59:36.959Z,101859.16
2022-10-13T04:00:38.773Z,101857.39
2022-10-13T04:01:40.598Z,101860.83
2022-10-13T04:02:42.378Z,101849.48
2022-10-13T04:03:44.209Z,101851.22
2022-10-13T04:04:46.027Z,101852.03
2022-10-13T04:05:47.827Z,101851.16
2022-10-13T04:06:49.624Z,101852.89
2022-10-13T04:07:51.417Z,101858.08
2022-10-13T04:08:53.246Z,101858.08
2022-10-13T04:09:55.059Z,101863.27
2022-10-13T04:10:56.843Z,101863.27
2022-10-13T04:11:58.654Z,101860.59
2022-10-13T04:13:00.493Z,101858.00
2022-10-13T04:14:02.360Z,101860.54
2022-10-13T04:15:04.194Z,101865.62
2022-10-13T04:16:06.307Z,101865.68
2022-10-13T04:17:08.150Z,101863.94
2022-10-13T04:18:10.006Z,101868.22
2022-10-13T04:19:11.844Z,101864.75
2022-10-13T04:20:13.878Z,101866.48
2022-10-13T04:21:15.722Z,101861.28
2022-10-13T04:22:17.921Z,101860.37
2022-10-13T04:23:19.845Z,101866.48
2022-10-13T04:24:21.729Z,101866.48
2022-10-13T04:25:23.592Z,101861.28
2022-10-13T04:26:25.400Z,101865.57
2022-10-13T04:27:27.235Z,101869.95
2022-10-13T04:28:29.123Z,101875.14
2022-10-13T04:29:30.921Z,101869.95
2022-10-13T04:30:32.740Z,101873.41
2022-10-13T04:31:34.565Z,101872.59
2022-10-13T04:32:36.400Z,101873.47
2022-10-13T04:33:38.224Z,101870.00
2022-10-13T04:34:40.086Z,101869.18
2022-10-13T04:35:41.927Z,101871.77
2022-10-13T04:36:43.789Z,101875.25
2022-10-13T04:37:45.595Z,101870.87
2022-10-13T04:38:47.437Z,101876.12
2022-10-13T04:39:49.279Z,101880.49
2022-10-13T04:40:51.206Z,101871.83
2022-10-13T04:41:53.017Z,101879.67
2022-10-13T04:42:54.836Z,101878.86
2022-10-13T04:43:56.645Z,101878.00
2022-10-13T04:44:58.521Z,101879.78
2022-10-13T04:46:00.358Z,101875.45
2022-10-13T04:47:02.187Z,101874.59
2022-10-13T04:48:03.983Z,101881.61
2022-10-13T04:49:05.810Z,101885.95
2022-10-13T04:50:07.982Z,101885.95
2022-10-13T04:51:09.830Z,101881.66
2022-10-13T04:52:11.746Z,101885.13
2022-10-13T04:53:18.910Z,101885.13
2022-10-13T04:54:17.229Z,101879.17
2022-10-13T04:55:19.085Z,101878.27
2022-10-13T04:56:20.913Z,101881.81
2022-10-13T04:57:22.726Z,101881.88
2022-10-13T04:58:24.565Z,101885.39
2022-10-13T04:59:26.435Z,101884.58
2022-10-13T05:00:28.340Z,101888.91
2022-10-13T05:01:30.124Z,101881.17
2022-10-13T05:02:31.946Z,101880.41
2022-10-13T05:03:33.783Z,101890.84
2022-10-13T05:04:35.596Z,101881.41
2022-10-13T05:05:37.456Z,101884.06
2022-10-13T05:06:58.937Z,101885.86
2022-10-13T05:07:43.012Z,101886.81
2022-10-13T05:08:44.846Z,101886.02
2022-10-13T05:09:46.655Z,101883.47
2022-10-13T05:10:48.519Z,101882.75
2022-10-13T05:11:50.357Z,101888.00
2022-10-13T05:12:52.191Z,101885.55
2022-10-13T05:13:54.021Z,101884.78
2022-10-13T05:14:55.834Z,101891.80
2022-10-13T05:15:57.698Z,101888.41
2022-10-13T05:16:59.522Z,101885.08
2022-10-13T05:18:01.351Z,101890.38
2022-10-13T05:19:03.157Z,101889.60
2022-10-13T05:20:05.081Z,101886.25
2022-10-13T05:21:06.942Z,101893.32
2022-10-13T05:22:08.987Z,101892.55
2022-10-13T05:23:10.827Z,101897.84
2022-10-13T05:24:12.666Z,101898.09
2022-10-13T05:25:14.499Z,101894.71
2022-10-13T05:26:16.348Z,101894.71
2022-10-13T05:27:18.178Z,101896.50
2022-10-13T05:28:20.034Z,101893.12
2022-10-13T05:29:21.816Z,101895.00
2022-10-13T05:30:23.641Z,101891.67
2022-10-13T05:31:25.508Z,101897.84
2022-10-13T05:32:27.324Z,101897.11
2022-10-13T05:33:29.147Z,101898.06
2022-10-13T05:34:30.972Z,101908.61
2022-10-13T05:35:32.839Z,101902.66
2022-10-13T05:36:34.710Z,101898.42
2022-10-13T05:37:36.748Z,101899.47
2022-10-13T05:38:38.598Z,101904.77
2022-10-13T05:39:40.428Z,101897.05
2022-10-13T05:40:42.238Z,101898.01
2022-10-13T05:41:44.100Z,101908.51
2022-10-13T05:42:45.930Z,101902.48
2022-10-13T05:43:47.744Z,101902.52
2022-10-13T05:44:49.566Z,101899.09
2022-10-13T05:45:51.382Z,101906.95
2022-10-13T05:46:53.247Z,101903.57
2022-10-13T05:47:55.104Z,101901.05
2022-10-13T05:48:56.912Z,101898.54
2022-10-13T05:49:58.731Z,101899.58
2022-10-13T05:51:00.573Z,101904.17
2022-10-13T05:52:02.430Z,101901.61
2022-10-13T05:53:04.309Z,101906.29
2022-10-13T05:54:06.137Z,101910.09
2022-10-13T05:55:07.962Z,101906.58
2022-10-13T05:56:10.102Z,101912.58
2022-10-13T05:57:11.938Z,101906.45
2022-10-13T05:58:13.760Z,101913.58
2022-10-13T05:59:15.584Z,101908.42
2022-10-13T06:00:17.425Z,101912.62
2022-10-13T06:01:19.215Z,101911.71
2022-10-13T06:02:21.468Z,101909.86
2022-10-13T06:03:23.501Z,101912.47
2022-10-13T06:04:25.322Z,101905.78
2022-10-13T06:05:27.138Z,101906.33
2022-10-13T06:06:31.484Z,101907.79
2022-10-13T06:07:32.688Z,101901.33
2022-10-13T06:08:34.517Z,101904.00
2022-10-13T06:09:36.339Z,101899.39
2022-10-13T06:10:38.156Z,101900.83
2022-10-13T06:11:40.005Z,101905.77
2022-10-13T06:12:41.988Z,101903.20
2022-10-13T06:13:43.786Z,101911.27
2022-10-13T06:14:45.614Z,101898.98
2022-10-13T06:15:47.438Z,101904.00
2022-10-13T06:16:49.436Z,101902.95
2022-10-13T06:17:51.285Z,101906.18
2022-10-13T06:18:53.121Z,101912.05
2022-10-13T06:19:54.961Z,101910.98
2022-10-13T06:20:56.768Z,101910.16
2022-10-13T06:22:03.270Z,101916.54
2022-10-13T06:23:02.248Z,101913.39
2022-10-13T06:24:04.165Z,101910.81
2022-10-13T06:25:05.983Z,101900.20
2022-10-13T06:26:07.870Z,101906.29
2022-10-13T06:27:09.668Z,101908.28
2022-10-13T06:28:11.645Z,101908.42
2022-10-13T06:29:13.650Z,101909.53
2022-10-13T06:30:15.917Z,101912.41
2022-10-13T06:31:17.694Z,101914.11
2022-10-13T06:32:19.773Z,101905.28
2022-10-13T06:33:21.661Z,101910.36
2022-10-13T06:34:23.460Z,101911.20
2022-10-13T06:35:25.158Z,101907.02
2022-10-13T06:36:26.956Z,101909.19
2022-10-13T06:37:28.752Z,101906.97
2022-10-13T06:38:30.595Z,101908.73
2022-10-13T06:39:32.435Z,101908.67
2022-10-13T06:40:34.171Z,101908.58
2022-10-13T06:41:35.864Z,101911.13
2022-10-13T06:42:37.669Z,101904.23
2022-10-13T06:43:40.568Z,101906.91
2022-10-13T06:44:42.520Z,101907.09
2022-10-13T06:45:44.304Z,101913.22
2022-10-13T06:46:46.095Z,101910.88
2022-10-13T06:47:47.922Z,101910.25
2022-10-13T06:48:49.770Z,101905.00
2022-10-13T06:49:51.582Z,101921.33
2022-10-13T06:50:53.481Z,101903.70
2022-10-13T06:51:55.270Z,101910.70
2022-10-13T06:52:57.074Z,101903.25
2022-10-13T06:53:58.917Z,101914.95
2022-10-13T06:55:00.893Z,101904.02
2022-10-13T06:56:02.727Z,101905.92
2022-10-13T06:57:04.622Z,101902.57
2022-10-13T06:58:06.451Z,101900.19
2022-10-13T06:59:08.270Z,101900.42
2022-10-13T07:00:10.299Z,101894.57
2022-10-13T07:01:12.191Z,101901.75
2022-10-13T07:02:15.851Z,101898.40
2022-10-13T07:03:17.641Z,101897.66
2022-10-13T07:04:19.461Z,101897.79
2022-10-13T07:05:21.259Z,101893.59
2022-10-13T07:06:23.068Z,101890.22
2022-10-13T07:07:24.898Z,101892.08
2022-10-13T07:08:26.682Z,101892.13
2022-10-13T07:09:28.543Z,101894.83
2022-10-13T07:10:30.368Z,101892.27
2022-10-13T07:11:32.269Z,101893.24
2022-10-13T07:12:34.068Z,101898.56
2022-10-13T07:13:37.123Z,101894.29
2022-10-13T07:14:41.676Z,101886.45
2022-10-13T07:15:43.111Z,101891.67
2022-10-13T07:16:44.820Z,101885.62
2022-10-13T07:17:46.619Z,101894.40
2022-10-13T07:18:48.309Z,101891.82
2022-10-13T07:19:52.033Z,101892.73
2022-10-13T07:20:54.845Z,101891.05
2022-10-13T07:21:56.625Z,101887.61
2022-10-13T07:22:58.333Z,101892.88
2022-10-13T07:24:00.040Z,101888.52
2022-10-13T07:25:01.882Z,101896.42
2022-10-13T07:26:03.814Z,101894.70
2022-10-13T07:27:07.943Z,101892.06
2022-10-13T07:28:09.203Z,101892.86
2022-10-13T07:29:10.989Z,101890.95
2022-10-13T07:30:12.940Z,101889.14
2022-10-13T07:31:14.727Z,101883.05
2022-10-13T07:32:16.511Z,101889.17
2022-10-13T07:33:18.310Z,101893.58
2022-10-13T07:34:20.110Z,101893.56
2022-10-13T07:35:23.179Z,101896.11
2022-10-13T07:36:25.501Z,101891.64
2022-10-13T07:37:27.281Z,101892.42
2022-10-13T07:38:28.978Z,101889.72
2022-10-13T07:39:30.769Z,101888.72
2022-10-13T07:40:32.585Z,101890.42
2022-10-13T07:41:34.414Z,101893.89
2022-10-13T07:42:36.221Z,101887.70
2022-10-13T07:43:37.905Z,101892.88
2022-10-13T07:44:39.706Z,101888.39
2022-10-13T07:45:41.533Z,101892.64
2022-10-13T07:46:43.318Z,101889.94
2022-10-13T07:47:45.020Z,101889.88
2022-10-13T07:48:46.848Z,101895.07
2022-10-13T07:49:48.638Z,101888.95
2022-10-13T07:50:50.452Z,101897.63
2022-10-13T07:51:52.144Z,101890.61
2022-10-13T07:52:53.942Z,101888.75
2022-10-13T07:53:55.639Z,101886.88
2022-10-13T07:54:57.364Z,101882.42
2022-10-13T07:55:59.185Z,101886.72
2022-10-13T07:57:00.888Z,101889.24
2022-10-13T07:58:02.584Z,101883.89
2022-10-13T07:59:04.380Z,101881.25
2022-10-13T08:00:06.192Z,101888.19
2022-10-13T08:01:07.943Z,101889.07
2022-10-13T08:02:09.741Z,101884.64
2022-10-13T08:03:11.423Z,101884.64
2022-10-13T08:04:13.248Z,101888.08
2022-10-13T08:05:15.033Z,101882.80
2022-10-13T08:06:16.891Z,101879.28
2022-10-13T08:07:18.980Z,101884.44
2022-10-13T08:08:20.916Z,101885.23
2022-10-13T08:09:23.316Z,101883.41
2022-10-13T08:10:25.114Z,101881.66
2022-10-13T08:11:26.872Z,101884.24
2022-10-13T08:12:28.826Z,101888.52
2022-10-13T08:13:30.538Z,101896.34
2022-10-13T08:14:32.422Z,101875.22
2022-10-13T08:15:34.483Z,101883.08
2022-10-13T08:16:36.223Z,101887.36
2022-10-13T08:17:38.000Z,101889.95
2022-10-13T08:18:39.683Z,101883.77
2022-10-13T08:19:41.486Z,101883.70
2022-10-13T08:20:43.878Z,101882.84
2022-10-13T08:22:07.797Z,101884.60
2022-10-13T08:23:07.581Z,101886.41
2022-10-13T08:24:09.272Z,101883.79
2022-10-13T08:25:11.087Z,101883.79
2022-10-13T08:26:12.985Z,101879.49
2022-10-13T08:27:14.892Z,101881.20
2022-10-13T08:28:16.711Z,101882.13
2022-10-13T08:29:23.359Z,101882.13
2022-10-13T08:30:22.375Z,101885.61
2022-10-13T08:31:24.458Z,101879.55
2022-10-13T08:32:26.458Z,101877.80
2022-10-13T08:33:28.257Z,101887.39
2022-10-13T08:34:30.100Z,101890.81
2022-10-13T08:35:34.834Z,101881.15
2022-10-13T08:36:35.505Z,101882.05
2022-10-13T08:37:37.392Z,101881.99
2022-10-13T08:38:39.225Z,101881.09
2022-10-13T08:39:41.039Z,101888.04
2022-10-13T08:40:42.884Z,101882.78
2022-10-13T08:41:44.695Z,101884.52
2022-10-13T08:42:46.696Z,101882.81
2022-10-13T08:44:24.755Z,101887.16
2022-10-13T08:45:55.894Z,101877.66
2022-10-13T08:46:57.764Z,101880.28
2022-10-13T08:47:59.639Z,101877.66
2022-10-13T08:49:01.486Z,101880.25
2022-10-13T08:50:03.314Z,101875.00
2022-10-13T08:51:05.166Z,101877.59
2022-10-13T08:52:07.010Z,101872.36
2022-10-13T08:53:08.878Z,101875.87
2022-10-13T08:54:10.720Z,101871.51
2022-10-13T08:55:12.531Z,101869.83
2022-10-13T08:56:14.644Z,101869.04
2022-10-13T08:57:16.883Z,101863.84
2022-10-13T08:58:19.263Z,101868.22
2022-10-13T08:59:21.661Z,101868.27
2022-10-13T09:00:23.815Z,101865.68
2022-10-13T09:01:25.997Z,101869.17
2022-10-13T09:02:28.170Z,101870.01
2022-10-13T09:03:30.423Z,101865.62
2022-10-13T09:04:32.569Z,101849.00
2022-10-13T09:05:34.598Z,101849.00
2022-10-13T09:06:36.681Z,101869.95
2022-10-13T09:07:41.608Z,101867.37
2022-10-13T09:08:43.965Z,101867.37
2022-10-13T09:09:46.136Z,101866.53
2022-10-13T09:10:48.277Z,101859.53
2022-10-13T09:11:53.182Z,101866.50
2022-10-13T09:12:55.370Z,101861.27
2022-10-13T09:13:57.646Z,101859.55
2022-10-13T09:14:59.861Z,101863.94
2022-10-13T09:16:02.024Z,101859.58
2022-10-13T09:17:04.210Z,101861.35
2022-10-13T09:18:06.472Z,101865.70
2022-10-13T09:19:08.718Z,101857.84
2022-10-13T09:20:12.183Z,101858.69
2022-10-13T09:21:14.346Z,101858.66
2022-10-13T09:22:16.646Z,101856.00
2022-10-13T09:23:18.948Z,101857.70
2022-10-13T09:24:22.267Z,101860.32
2022-10-13T09:25:24.430Z,101844.66
2022-10-13T09:26:26.601Z,101861.30
2022-10-13T09:27:28.747Z,101852.56
2022-10-13T09:28:30.977Z,101851.69
2022-10-13T09:29:33.251Z,101856.07
2022-10-13T09:30:35.436Z,101859.55
2022-10-13T09:31:37.571Z,101861.30
2022-10-13T09:32:39.726Z,101854.25
2022-10-13T09:33:41.850Z,101854.20
2022-10-13T09:34:44.053Z,101860.24
2022-10-13T09:35:46.122Z,101853.22
2022-10-13T09:36:48.278Z,101854.09
2022-10-13T09:37:50.473Z,101854.94
2022-10-13T09:38:52.627Z,101855.78
2022-10-13T09:39:54.864Z,101850.55
2022-10-13T09:40:57.013Z,101850.52
2022-10-13T09:41:59.158Z,101843.59
2022-10-13T09:43:01.295Z,101853.16
2022-10-13T09:44:03.431Z,101846.25
2022-10-13T09:45:05.704Z,101843.66
2022-10-13T09:46:08.058Z,101845.46
2022-10-13T09:47:10.250Z,101847.25
2022-10-13T09:48:12.407Z,101848.13
2022-10-13T09:49:14.601Z,101842.91
2022-10-13T09:50:16.832Z,101845.52
2022-10-13T09:51:18.969Z,101836.80
2022-10-13T09:52:21.255Z,101842.08
2022-10-13T09:53:23.484Z,101844.72
2022-10-13T09:54:25.633Z,101851.73
2022-10-13T09:55:32.428Z,101848.23
2022-10-13T09:56:31.603Z,101840.36
2022-10-13T09:57:33.764Z,101840.36
2022-10-13T09:58:35.913Z,101842.95
2022-10-13T09:59:38.115Z,101845.52
2022-10-13T10:00:40.264Z,101842.91
2022-10-13T10:01:42.457Z,101843.77
2022-10-13T10:02:44.641Z,101845.48
2022-10-13T10:03:48.590Z,101841.97
2022-10-13T10:04:52.811Z,101848.10
2022-10-13T10:05:54.731Z,101844.61
2022-10-13T10:06:56.982Z,101844.61
2022-10-13T10:07:59.095Z,101848.08
2022-10-13T10:09:03.767Z,101840.17
2022-10-13T10:10:05.123Z,101845.38
2022-10-13T10:11:07.277Z,101836.69
2022-10-13T10:12:09.416Z,101843.69
2022-10-13T10:13:11.565Z,101836.69
2022-10-13T10:14:13.723Z,101833.21
2022-10-13T10:15:15.779Z,101839.28
2022-10-13T10:16:17.923Z,101834.92
2022-10-13T10:17:20.323Z,101835.83
2022-10-13T10:18:22.568Z,101831.47
2022-10-13T10:19:24.712Z,101838.46
2022-10-13T10:20:26.869Z,101839.30
2022-10-13T10:21:29.109Z,101828.85
2022-10-13T10:22:31.217Z,101831.49
2022-10-13T10:23:33.345Z,101828.03
2022-10-13T10:24:35.431Z,101828.91
2022-10-13T10:25:37.600Z,101828.03
2022-10-13T10:26:39.829Z,101835.91
2022-10-13T10:27:43.741Z,101835.06
2022-10-13T10:28:45.925Z,101834.16
2022-10-13T10:29:48.000Z,101831.52
2022-10-13T10:30:50.145Z,101828.01
2022-10-13T10:31:52.363Z,101833.27
2022-10-13T10:32:54.614Z,101829.81
2022-10-13T10:33:56.770Z,101831.57
2022-10-13T10:34:58.600Z,101829.00
2022-10-13T10:36:00.444Z,101829.94
2022-10-13T10:37:02.361Z,101822.11
2022-10-13T10:38:04.180Z,101816.89
2022-10-13T10:39:06.041Z,101819.50
2022-10-13T10:40:07.976Z,101823.83
2022-10-13T10:41:09.817Z,101828.16
2022-10-13T10:42:11.694Z,101820.32
2022-10-13T10:43:13.571Z,101822.94
2022-10-13T10:44:15.442Z,101821.19
2022-10-13T10:45:17.285Z,101821.22
2022-10-13T10:46:19.145Z,101818.59
2022-10-13T10:47:23.332Z,101816.02
2022-10-13T10:48:24.749Z,101815.17
2022-10-13T10:49:26.561Z,101806.45
2022-10-13T10:50:28.335Z,101813.42
2022-10-13T10:51:30.052Z,101812.58
2022-10-13T10:52:31.913Z,101812.58
2022-10-13T10:53:33.708Z,101812.60
2022-10-13T10:54:35.400Z,101820.45
2022-10-13T10:55:37.094Z,101819.58
2022-10-13T10:56:38.800Z,101813.45
2022-10-13T10:57:40.643Z,101811.73
2022-10-13T10:58:42.475Z,101813.47
2022-10-13T10:59:44.182Z,101813.47
2022-10-13T11:00:45.886Z,101816.98
2022-10-13T11:01:47.701Z,101813.45
2022-10-13T11:02:49.504Z,101818.67
2022-10-13T11:03:51.339Z,101813.45
2022-10-13T11:04:53.037Z,101810.86
2022-10-13T11:05:54.845Z,101817.03
2022-10-13T11:06:56.638Z,101818.77
2022-10-13T11:07:58.464Z,101819.67
2022-10-13T11:09:00.153Z,101812.72
2022-10-13T11:10:01.909Z,101817.97
2022-10-13T11:11:03.671Z,101818.00
2022-10-13T11:12:05.373Z,101812.81
2022-10-13T11:13:07.122Z,101812.84
2022-10-13T11:14:08.818Z,101815.45
2022-10-13T11:15:10.512Z,101810.25
2022-10-13T11:16:12.507Z,101808.56
2022-10-13T11:17:14.271Z,101812.06
2022-10-13T11:18:19.769Z,101811.22
2022-10-13T11:19:19.738Z,101812.06
2022-10-13T11:20:21.527Z,101808.58
2022-10-13T11:21:23.309Z,101805.95
2022-10-13T11:22:25.160Z,101802.45
2022-10-13T11:23:26.962Z,101808.56
2022-10-13T11:24:28.793Z,101813.81
2022-10-13T11:25:30.598Z,101803.33
2022-10-13T11:26:32.396Z,101806.77
2022-10-13T11:27:34.193Z,101814.59
2022-10-13T11:28:36.097Z,101815.41
2022-10-13T11:29:37.849Z,101812.80
2022-10-13T11:30:39.675Z,101811.03
2022-10-13T11:31:41.469Z,101812.72
2022-10-13T11:32:43.171Z,101810.11
2022-10-13T11:33:45.024Z,101817.06
2022-10-13T11:34:46.862Z,101819.67
2022-10-13T11:35:48.654Z,101813.55
2022-10-13T11:36:50.458Z,101811.83
2022-10-13T11:38:06.041Z,101810.11
2022-10-13T11:38:55.979Z,101811.88
2022-10-13T11:39:57.787Z,101808.42
2022-10-13T11:40:59.597Z,101808.42
2022-10-13T11:42:01.403Z,101807.52
2022-10-13T11:43:05.167Z,101803.19
2022-10-13T11:44:06.857Z,101808.44
2022-10-13T11:45:08.659Z,101804.97
2022-10-13T11:46:10.749Z,101804.97
2022-10-13T11:47:12.557Z,101805.89
2022-10-13T11:48:14.378Z,101802.38